createdAt,value
2019-04-05T00:00:11.410Z,74.10
2019-04-05T00:02:41.012Z,73.70
2019-04-05T00:05:10.593Z,74.20
2019-04-05T00:07:40.163Z,73.70
2019-04-05T00:10:10.386Z,74.10
2019-04-05T00:12:39.974Z,74.10
2019-04-05T00:15:15.715Z,74.00
2019-04-05T00:17:40.874Z,73.90
2019-04-05T00:20:10.876Z,74.20
2019-04-05T00:22:40.456Z,74.30
2019-04-05T00:25:10.187Z,74.10
2019-04-05T00:27:39.761Z,73.60
2019-04-05T00:30:10.968Z,73.00
2019-04-05T00:32:40.576Z,73.20
2019-04-05T00:37:57.761Z,74.80
2019-04-05T00:40:27.399Z,75.70
2019-04-05T00:42:57.008Z,76.10
2019-04-05T00:45:28.362Z,76.10
2019-04-05T00:47:57.983Z,75.80
2019-04-05T00:50:27.734Z,76.00
2019-04-05T00:52:57.333Z,75.90
2019-04-05T00:55:26.919Z,75.20
2019-04-05T00:57:56.521Z,74.30
2019-04-05T01:00:26.259Z,73.90
2019-04-05T01:02:55.932Z,73.90
2019-04-05T01:05:25.512Z,73.70
2019-04-05T01:07:55.210Z,73.00
2019-04-05T01:10:24.796Z,72.90
2019-04-05T01:12:54.743Z,73.20
2019-04-05T01:15:24.340Z,73.60
2019-04-05T01:17:54.183Z,73.50
2019-04-05T01:20:26.625Z,74.00
2019-04-05T01:22:57.773Z,74.50
2019-04-05T01:25:28.309Z,74.60
2019-04-05T01:27:57.903Z,74.80
2019-04-05T01:30:27.498Z,75.30
2019-04-05T01:32:57.173Z,75.30
2019-04-05T01:35:26.751Z,74.70
2019-04-05T01:37:56.884Z,74.40
2019-04-05T01:40:29.589Z,74.10
2019-04-05T01:42:59.259Z,73.80
2019-04-05T01:45:29.333Z,72.80
2019-04-05T01:47:58.911Z,72.70
2019-04-05T01:50:29.855Z,72.70
2019-04-05T01:53:00.392Z,74.20
2019-04-05T01:55:30.081Z,75.80
2019-04-05T01:57:59.667Z,76.20
2019-04-05T02:00:29.341Z,76.40
2019-04-05T02:02:58.951Z,77.00
2019-04-05T02:05:28.627Z,77.80
2019-04-05T02:07:58.352Z,77.50
2019-04-05T02:10:28.083Z,77.20
2019-04-05T02:12:57.818Z,76.90
2019-04-05T02:15:30.365Z,76.50
2019-04-05T02:17:59.983Z,77.10
2019-04-05T02:20:29.750Z,77.40
2019-04-05T02:22:59.580Z,77.40
2019-04-05T02:25:29.267Z,77.20
2019-04-05T02:27:58.915Z,77.30
2019-04-05T02:30:28.686Z,77.10
2019-04-05T02:32:58.480Z,76.70
2019-04-05T02:35:28.197Z,76.60
2019-04-05T02:37:58.028Z,76.60
2019-04-05T02:40:28.590Z,76.60
2019-04-05T02:43:00.693Z,76.70
2019-04-05T02:45:33.389Z,76.20
2019-04-05T02:48:06.346Z,75.60
2019-04-05T02:50:38.938Z,75.40
2019-04-05T02:53:11.225Z,75.60
2019-04-05T02:55:43.087Z,76.30
2019-04-05T02:58:13.873Z,76.40
2019-04-05T03:00:44.777Z,76.30
2019-04-05T03:03:15.972Z,76.80
2019-04-05T03:05:46.558Z,77.30
2019-04-05T03:08:17.427Z,77.70
2019-04-05T03:10:58.550Z,77.60
2019-04-05T03:13:30.221Z,78.20
2019-04-05T03:16:03.414Z,78.00
2019-04-05T03:18:33.698Z,77.90
2019-04-05T03:21:06.189Z,77.80
2019-04-05T03:23:38.821Z,77.80
2019-04-05T03:26:11.477Z,78.00
2019-04-05T03:28:43.895Z,78.00
2019-04-05T03:31:14.194Z,77.80
2019-04-05T03:33:44.393Z,77.40
2019-04-05T03:36:14.222Z,77.50
2019-04-05T03:38:44.543Z,76.80
2019-04-05T03:41:14.856Z,77.30
2019-04-05T03:43:45.678Z,77.70
2019-04-05T03:46:16.293Z,77.40
2019-04-05T03:48:46.708Z,77.20
2019-04-05T03:51:16.797Z,77.30
2019-04-05T03:53:46.542Z,76.40
2019-04-05T03:56:16.675Z,76.00
2019-04-05T03:58:47.028Z,76.60
2019-04-05T04:01:16.653Z,77.00
2019-04-05T04:03:46.289Z,77.00
2019-04-05T04:06:15.957Z,77.30
2019-04-05T04:08:45.645Z,78.20
2019-04-05T04:11:15.573Z,79.50
2019-04-05T04:13:45.483Z,79.60
2019-04-05T04:16:15.431Z,79.90
2019-04-05T04:18:45.456Z,80.10
2019-04-05T04:21:24.103Z,80.10
2019-04-05T04:23:54.429Z,79.70
2019-04-05T04:26:24.138Z,79.20
2019-04-05T04:28:54.261Z,77.90
2019-04-05T04:31:23.825Z,77.40
2019-04-05T04:33:53.869Z,77.20
2019-04-05T04:36:24.036Z,76.50
2019-04-05T04:38:54.560Z,77.20
2019-04-05T04:41:24.292Z,77.00
2019-04-05T04:43:55.181Z,77.40
2019-04-05T04:46:24.825Z,78.10
2019-04-05T04:48:55.250Z,79.30
2019-04-05T04:51:25.357Z,79.10
2019-04-05T04:53:55.069Z,79.30
2019-04-05T04:56:24.916Z,79.00
2019-04-05T04:58:54.717Z,78.40
2019-04-05T05:01:24.513Z,77.50
2019-04-05T05:03:54.928Z,76.90
2019-04-05T05:06:24.596Z,77.00
2019-04-05T05:08:54.136Z,77.20
2019-04-05T05:11:24.429Z,77.70
2019-04-05T05:13:53.998Z,77.90
2019-04-05T05:16:24.193Z,78.00
2019-04-05T05:18:54.225Z,78.00
2019-04-05T05:21:23.922Z,77.90
2019-04-05T05:23:53.630Z,77.90
2019-04-05T05:26:24.385Z,77.90
2019-04-05T05:28:54.071Z,78.40
2019-04-05T05:31:24.275Z,79.20
2019-04-05T05:33:54.000Z,78.50
2019-04-05T05:36:23.632Z,79.10
2019-04-05T05:38:53.360Z,79.50
2019-04-05T05:41:22.915Z,78.80
2019-04-05T05:43:52.590Z,78.70
2019-04-05T05:46:22.257Z,79.00
2019-04-05T05:48:51.846Z,79.00
2019-04-05T05:51:21.973Z,78.60
2019-04-05T05:53:51.545Z,78.50
2019-04-05T05:56:21.105Z,77.30
2019-04-05T05:58:50.674Z,76.80
2019-04-05T06:01:20.255Z,76.60
2019-04-05T06:03:49.849Z,77.10
2019-04-05T06:06:19.405Z,77.20
2019-04-05T06:08:49.066Z,77.00
2019-04-05T06:11:18.641Z,76.70
2019-04-05T06:13:49.873Z,76.10
2019-04-05T06:16:19.645Z,74.00
2019-04-05T06:18:49.182Z,74.40
2019-04-05T06:21:18.871Z,73.80
2019-04-05T06:23:48.536Z,73.70
2019-04-05T06:26:19.153Z,72.40
2019-04-05T06:28:49.801Z,72.30
2019-04-05T06:31:19.599Z,72.40
2019-04-05T06:33:49.437Z,72.10
2019-04-05T06:36:18.958Z,72.50
2019-04-05T06:38:48.928Z,72.20
2019-04-05T06:41:18.418Z,71.50
2019-04-05T06:43:48.044Z,71.40
2019-04-05T06:46:17.610Z,72.70
2019-04-05T06:48:48.853Z,72.60
2019-04-05T06:51:18.416Z,72.00
2019-04-05T06:53:47.993Z,71.70
2019-04-05T06:56:17.630Z,71.50
2019-04-05T06:58:47.532Z,71.40
2019-04-05T07:01:17.178Z,71.40
2019-04-05T07:03:46.756Z,71.10
2019-04-05T07:06:16.398Z,71.40
2019-04-05T07:08:53.704Z,70.40
2019-04-05T07:11:17.157Z,70.50
2019-04-05T07:13:46.661Z,69.90
2019-04-05T07:16:16.300Z,68.00
2019-04-05T07:18:46.008Z,67.90
2019-04-05T07:21:17.274Z,68.50
2019-04-05T07:23:46.837Z,68.70
2019-04-05T07:26:16.410Z,68.30
2019-04-05T07:28:45.975Z,67.50
2019-04-05T07:31:15.549Z,67.30
2019-04-05T07:33:45.121Z,67.20
2019-04-05T07:36:14.722Z,66.90
2019-04-05T07:38:44.254Z,66.90
2019-04-05T07:41:13.790Z,66.40
2019-04-05T07:43:44.495Z,65.90
2019-04-05T07:46:14.050Z,65.50
2019-04-05T07:48:45.034Z,65.50
2019-04-05T07:51:14.926Z,65.40
2019-04-05T07:53:44.483Z,65.50
2019-04-05T07:56:14.062Z,64.10
2019-04-05T07:58:43.573Z,62.80
2019-04-05T08:01:14.063Z,63.00
2019-04-05T08:03:43.638Z,64.10
2019-04-05T08:06:13.320Z,63.50
2019-04-05T08:08:49.208Z,63.20
2019-04-05T08:11:19.674Z,63.20
2019-04-05T08:13:52.734Z,63.50
2019-04-05T08:16:22.409Z,62.60
2019-04-05T08:18:57.618Z,61.70
2019-04-05T08:21:23.282Z,61.50
2019-04-05T08:23:52.871Z,60.50
2019-04-05T08:26:22.526Z,60.80
2019-04-05T08:28:52.264Z,59.80
2019-04-05T08:31:21.987Z,59.10
2019-04-05T08:33:51.572Z,59.30
2019-04-05T08:36:21.139Z,56.50
2019-04-05T08:38:50.705Z,55.00
2019-04-05T08:41:20.274Z,54.80
2019-04-05T08:43:49.768Z,55.10
2019-04-05T08:46:19.333Z,53.90
2019-04-05T08:48:48.982Z,52.80
2019-04-05T08:51:18.567Z,52.00
2019-04-05T08:53:48.135Z,52.10
2019-04-05T08:56:17.690Z,52.60
2019-04-05T08:58:47.265Z,52.20
2019-04-05T09:01:16.921Z,52.30
2019-04-05T09:03:46.488Z,52.10
2019-04-05T09:06:16.061Z,51.80
2019-04-05T09:08:45.614Z,52.00
2019-04-05T09:11:15.290Z,51.00
2019-04-05T09:13:44.855Z,51.10
2019-04-05T09:16:14.442Z,51.00
2019-04-05T09:18:44.356Z,50.90
2019-04-05T09:21:13.938Z,50.20
2019-04-05T09:23:43.527Z,51.10
2019-04-05T09:26:13.140Z,50.90
2019-04-05T09:28:42.710Z,51.30
2019-04-05T09:31:12.265Z,51.40
2019-04-05T09:33:41.871Z,51.80
2019-04-05T09:36:11.497Z,50.20
2019-04-05T09:38:41.112Z,48.40
2019-04-05T09:41:10.690Z,48.50
2019-04-05T09:43:40.270Z,49.90
2019-04-05T09:46:09.885Z,49.90
2019-04-05T09:48:39.476Z,49.80
2019-04-05T09:51:09.037Z,49.70
2019-04-05T09:53:38.623Z,49.30
2019-04-05T09:56:08.114Z,49.10
2019-04-05T09:58:37.684Z,49.20
2019-04-05T10:01:07.237Z,49.70
2019-04-05T10:03:36.820Z,48.60
2019-04-05T10:06:06.452Z,48.50
2019-04-05T10:08:36.017Z,49.70
2019-04-05T10:11:05.571Z,50.30
2019-04-05T10:13:35.148Z,50.00
2019-04-05T10:16:04.838Z,49.80
2019-04-05T10:18:34.335Z,48.80
2019-04-05T10:21:03.901Z,48.90
2019-04-05T10:23:34.016Z,49.10
2019-04-05T10:26:04.270Z,49.10
2019-04-05T10:28:33.928Z,48.90
2019-04-05T10:31:03.484Z,48.80
2019-04-05T10:33:33.134Z,48.80
2019-04-05T10:36:02.922Z,49.00
2019-04-05T10:38:32.421Z,48.40
2019-04-05T10:41:02.238Z,47.00
2019-04-05T10:43:31.797Z,46.50
2019-04-05T10:46:01.356Z,46.50
2019-04-05T10:48:30.933Z,45.50
2019-04-05T10:51:00.697Z,45.60
2019-04-05T10:53:30.254Z,46.40
2019-04-05T10:56:00.526Z,46.90
2019-04-05T10:58:30.148Z,46.30
2019-04-05T11:00:59.661Z,45.00
2019-04-05T11:03:29.246Z,43.90
2019-04-05T11:05:58.819Z,44.30
2019-04-05T11:08:28.409Z,45.30
2019-04-05T11:10:57.969Z,45.40
2019-04-05T11:13:27.554Z,44.10
2019-04-05T11:15:57.037Z,44.50
2019-04-05T11:18:26.948Z,44.60
2019-04-05T11:20:56.474Z,44.70
2019-04-05T11:23:26.047Z,44.00
2019-04-05T11:25:55.649Z,44.60
2019-04-05T11:28:25.238Z,44.80
2019-04-05T11:30:54.813Z,43.90
2019-04-05T11:33:24.956Z,43.30
2019-04-05T11:35:57.645Z,43.40
2019-04-05T11:38:26.739Z,43.80
2019-04-05T11:40:57.658Z,44.00
2019-04-05T11:43:31.287Z,44.00
2019-04-05T11:46:01.763Z,42.90
2019-04-05T11:48:32.386Z,42.10
2019-04-05T11:51:03.226Z,42.60
2019-04-05T11:53:32.800Z,43.10
2019-04-05T11:56:13.936Z,43.20
2019-04-05T11:58:33.543Z,43.50
2019-04-05T12:01:04.774Z,42.60
2019-04-05T12:03:35.108Z,42.50
2019-04-05T12:06:04.677Z,42.00
2019-04-05T12:08:34.242Z,41.90
2019-04-05T12:11:03.935Z,42.00
2019-04-05T12:13:35.987Z,43.30
2019-04-05T12:16:06.102Z,43.40
2019-04-05T12:18:36.393Z,42.50
2019-04-05T12:21:06.326Z,40.30
2019-04-05T12:23:35.903Z,41.60
2019-04-05T12:26:05.546Z,42.90
2019-04-05T12:28:35.108Z,42.20
2019-04-05T12:31:04.761Z,43.20
2019-04-05T12:33:34.337Z,43.20
2019-04-05T12:36:03.925Z,43.40
2019-04-05T12:38:34.404Z,41.80
2019-04-05T12:41:04.964Z,42.40
2019-04-05T12:43:34.600Z,43.20
2019-04-05T12:46:05.371Z,42.90
2019-04-05T12:48:34.915Z,43.50
2019-04-05T12:51:05.595Z,44.20
2019-04-05T12:53:35.447Z,43.90
2019-04-05T12:58:53.633Z,42.80
2019-04-05T13:06:58.840Z,43.50
2019-04-05T13:09:28.450Z,43.50
2019-04-05T13:11:58.170Z,43.60
2019-04-05T13:14:27.712Z,43.20
2019-04-05T13:16:57.330Z,42.60
2019-04-05T13:19:28.545Z,42.40
2019-04-05T13:21:58.221Z,43.00
2019-04-05T13:24:27.814Z,42.40
2019-04-05T13:26:57.495Z,42.50
2019-04-05T13:29:26.986Z,42.00
2019-04-05T13:31:56.622Z,42.10
2019-04-05T13:34:26.587Z,42.00
2019-04-05T13:36:56.346Z,41.90
2019-04-05T13:39:27.554Z,41.70
2019-04-05T13:41:57.127Z,42.10
2019-04-05T13:44:26.705Z,42.40
2019-04-05T13:46:56.321Z,40.30
2019-04-05T13:49:25.889Z,40.30
2019-04-05T13:51:55.478Z,39.60
2019-04-05T13:54:25.133Z,40.70
2019-04-05T13:56:54.713Z,41.40
2019-04-05T13:59:24.398Z,41.30
2019-04-05T14:02:05.526Z,41.70
2019-04-05T14:04:25.223Z,40.80
2019-04-05T14:06:54.813Z,40.60
2019-04-05T14:09:24.393Z,40.80
2019-04-05T14:11:54.061Z,40.70
2019-04-05T14:14:23.637Z,40.40
2019-04-05T14:16:54.124Z,39.20
2019-04-05T14:19:23.901Z,39.00
2019-04-05T14:21:53.747Z,38.90
2019-04-05T14:24:23.976Z,38.40
2019-04-05T14:26:53.672Z,38.50
2019-04-05T14:29:23.329Z,39.20
2019-04-05T14:31:52.886Z,39.00
2019-04-05T14:34:23.681Z,38.90
2019-04-05T14:36:53.657Z,38.80
2019-04-05T14:39:23.199Z,38.70
2019-04-05T14:41:52.837Z,38.70
2019-04-05T14:44:22.355Z,39.40
2019-04-05T14:46:51.940Z,39.80
2019-04-05T14:49:21.540Z,38.90
2019-04-05T14:51:54.877Z,38.80
2019-04-05T14:54:22.322Z,38.30
2019-04-05T14:56:51.885Z,38.20
2019-04-05T14:59:22.626Z,38.80
2019-04-05T15:01:52.191Z,39.30
2019-04-05T15:04:21.775Z,38.50
2019-04-05T15:06:51.495Z,38.40
2019-04-05T15:09:24.885Z,38.30
2019-04-05T15:11:52.283Z,37.80
2019-04-05T15:14:21.898Z,38.70
2019-04-05T15:16:51.446Z,39.30
2019-04-05T15:19:21.025Z,39.40
2019-04-05T15:21:50.614Z,40.40
2019-04-05T15:24:20.193Z,39.40
2019-04-05T15:26:51.589Z,39.10
2019-04-05T15:29:21.052Z,39.40
2019-04-05T15:31:50.625Z,37.90
2019-04-05T15:34:20.374Z,37.10
2019-04-05T15:36:49.965Z,37.70
2019-04-05T15:39:19.494Z,38.10
2019-04-05T15:41:49.129Z,38.50
2019-04-05T15:44:18.725Z,38.40
2019-04-05T15:46:48.293Z,38.70
2019-04-05T15:49:19.430Z,38.70
2019-04-05T15:51:49.109Z,38.20
2019-04-05T15:54:18.703Z,38.60
2019-04-05T15:56:48.277Z,38.50
2019-04-05T15:59:17.872Z,38.40
2019-04-05T16:01:47.482Z,39.00
2019-04-05T16:04:17.059Z,39.70
2019-04-05T16:06:46.690Z,39.80
2019-04-05T16:09:18.069Z,39.50
2019-04-05T16:11:47.705Z,40.00
2019-04-05T16:14:17.365Z,40.00
2019-04-05T16:16:46.930Z,39.90
2019-04-05T16:19:16.606Z,40.60
2019-04-05T16:21:46.092Z,40.00
2019-04-05T16:24:15.662Z,40.30
2019-04-05T16:26:45.267Z,39.80
2019-04-05T16:29:14.858Z,40.00
2019-04-05T16:31:44.432Z,40.20
2019-04-05T16:34:14.013Z,39.60
2019-04-05T16:36:43.572Z,39.40
2019-04-05T16:39:14.721Z,39.70
2019-04-05T16:41:44.293Z,40.80
2019-04-05T16:44:13.962Z,40.40
2019-04-05T16:46:43.552Z,40.20
2019-04-05T16:49:13.132Z,40.70
2019-04-05T16:51:42.732Z,41.30
2019-04-05T16:54:12.304Z,42.40
2019-04-05T16:56:41.901Z,43.10
2019-04-05T16:59:11.417Z,44.30
2019-04-05T17:01:41.037Z,45.10
2019-04-05T17:04:10.622Z,45.50
2019-04-05T17:06:40.201Z,47.00
2019-04-05T17:09:09.845Z,47.00
2019-04-05T17:11:39.414Z,47.60
2019-04-05T17:14:08.905Z,48.90
2019-04-05T17:16:38.455Z,49.40
2019-04-05T17:19:08.033Z,50.60
2019-04-05T17:21:37.689Z,51.10
2019-04-05T17:24:07.262Z,51.20
2019-04-05T17:26:36.942Z,51.80
2019-04-05T17:30:04.464Z,52.10
2019-04-05T17:32:34.278Z,52.30
2019-04-05T17:35:05.028Z,52.80
2019-04-05T17:37:34.766Z,53.40
2019-04-05T17:40:07.762Z,53.00
2019-04-05T17:42:38.312Z,53.50
2019-04-05T17:45:09.035Z,53.60
2019-04-05T17:47:38.613Z,53.70
2019-04-05T17:50:10.630Z,54.60
2019-04-05T17:52:40.205Z,55.00
2019-04-05T17:55:09.917Z,54.70
2019-04-05T17:57:39.812Z,54.70
2019-04-05T18:00:11.553Z,54.80
2019-04-05T18:02:41.073Z,55.10
2019-04-05T18:05:10.646Z,54.70
2019-04-05T18:07:40.238Z,55.30
2019-04-05T18:10:10.163Z,55.30
2019-04-05T18:12:39.848Z,55.00
2019-04-05T18:15:09.649Z,55.40
2019-04-05T18:17:39.293Z,56.10
2019-04-05T18:20:10.023Z,56.80
2019-04-05T18:22:39.709Z,57.20
2019-04-05T18:25:09.425Z,57.70
2019-04-05T18:27:39.010Z,58.00
2019-04-05T18:30:08.839Z,58.10
2019-04-05T18:32:38.455Z,58.30
2019-04-05T18:35:08.544Z,59.30
2019-04-05T18:37:38.121Z,59.00
2019-04-05T18:40:08.385Z,59.70
2019-04-05T18:42:38.103Z,59.00
2019-04-05T18:45:08.048Z,59.40
2019-04-05T18:47:37.766Z,59.70
2019-04-05T18:50:08.042Z,60.10
2019-04-05T18:52:37.685Z,60.90
2019-04-05T18:55:08.237Z,61.40
2019-04-05T18:57:37.802Z,61.20
2019-04-05T19:00:08.624Z,61.50
2019-04-05T19:02:38.170Z,62.20
2019-04-05T19:05:07.889Z,62.40
2019-04-05T19:07:37.490Z,62.60
2019-04-05T19:10:08.217Z,63.20
2019-04-05T19:12:37.858Z,63.00
2019-04-05T19:15:08.677Z,62.50
2019-04-05T19:17:39.883Z,63.10
2019-04-05T19:20:09.804Z,63.20
2019-04-05T19:22:39.562Z,63.40
2019-04-05T19:25:09.314Z,63.10
2019-04-05T19:27:40.741Z,63.00
2019-04-05T19:50:22.182Z,63.90
2019-04-05T19:52:51.932Z,64.10
2019-04-05T19:55:21.518Z,64.00
2019-04-05T19:57:51.110Z,64.30
2019-04-05T20:00:20.890Z,64.70
2019-04-05T20:02:50.477Z,64.70
2019-04-05T20:05:20.046Z,64.80
2019-04-05T20:07:49.622Z,65.10
2019-04-05T20:10:19.296Z,65.70
2019-04-05T20:12:48.955Z,65.60
2019-04-05T20:15:18.612Z,66.10
2019-04-05T20:17:48.189Z,66.30
2019-04-05T20:20:18.577Z,65.90
2019-04-05T20:22:48.259Z,65.30
2019-04-05T20:25:18.243Z,65.50
2019-04-05T20:27:47.854Z,65.00
2019-04-05T20:30:17.578Z,65.20
2019-04-05T20:32:47.392Z,65.50
2019-04-05T20:35:17.333Z,65.60
2019-04-05T20:37:47.098Z,65.10
2019-04-05T20:40:18.192Z,64.90
2019-04-05T20:42:47.939Z,64.60
2019-04-05T20:45:18.306Z,64.50
2019-04-05T20:47:50.023Z,64.70
2019-04-05T20:50:19.918Z,65.70
2019-04-05T20:52:49.536Z,65.70
2019-04-05T20:55:19.364Z,65.90
2019-04-05T20:57:48.944Z,65.90
2019-04-05T21:00:19.111Z,66.10
2019-04-05T21:02:48.798Z,65.80
2019-04-05T21:05:25.254Z,65.30
2019-04-05T21:07:49.558Z,65.30
2019-04-05T21:10:19.211Z,65.00
2019-04-05T21:12:48.795Z,65.20
2019-04-05T21:15:18.389Z,65.20
2019-04-05T21:17:47.988Z,64.90
2019-04-05T21:20:17.682Z,65.20
2019-04-05T21:22:47.304Z,65.70
2019-04-05T21:25:16.938Z,65.70
2019-04-05T21:27:49.437Z,66.80
2019-04-05T21:30:19.310Z,67.00
2019-04-05T21:32:48.964Z,67.10
2019-04-05T21:35:18.874Z,66.90
2019-04-05T21:37:48.523Z,66.80
2019-04-05T21:40:18.157Z,66.50
2019-04-05T21:42:47.754Z,66.70
2019-04-05T21:45:17.465Z,67.90
2019-04-05T21:47:47.064Z,68.60
2019-04-05T21:50:16.835Z,68.20
2019-04-05T21:52:46.505Z,68.00
2019-04-05T21:55:16.129Z,68.30
2019-04-05T21:57:45.735Z,68.30
2019-04-05T22:00:25.399Z,69.00
2019-04-05T22:02:55.014Z,68.40
2019-04-05T22:05:24.679Z,68.10
2019-04-05T22:07:54.464Z,68.10
2019-04-05T22:10:24.069Z,67.90
2019-04-05T22:12:54.078Z,67.80
2019-04-05T22:15:24.124Z,67.80
2019-04-05T22:17:53.828Z,68.30
2019-04-05T22:20:24.488Z,68.70
2019-04-05T22:22:54.658Z,68.50
2019-04-05T22:25:24.780Z,68.80
2019-04-05T22:27:54.437Z,69.20
2019-04-05T22:30:24.031Z,69.30
2019-04-05T22:32:53.657Z,69.70
2019-04-05T22:35:23.397Z,69.60
2019-04-05T22:37:53.027Z,69.30
2019-04-05T22:40:22.640Z,69.10
2019-04-05T22:42:52.315Z,69.30
2019-04-05T22:45:21.960Z,69.70
2019-04-05T22:47:51.803Z,70.20
2019-04-05T22:50:21.516Z,70.10
2019-04-05T22:52:51.243Z,70.20
2019-04-05T22:55:20.869Z,71.20
2019-04-05T22:57:50.749Z,70.90
2019-04-05T23:00:20.493Z,70.80
2019-04-05T23:02:50.147Z,70.60
2019-04-05T23:05:19.761Z,70.30
2019-04-05T23:07:49.422Z,70.20
2019-04-05T23:10:19.602Z,70.00
2019-04-05T23:12:49.269Z,70.50
2019-04-05T23:15:18.904Z,70.20
2019-04-05T23:17:48.567Z,70.30
2019-04-05T23:20:18.267Z,70.10
2019-04-05T23:22:47.966Z,70.70
2019-04-05T23:25:22.071Z,71.40
2019-04-05T23:27:49.078Z,72.10
2019-04-05T23:30:19.611Z,72.20
2019-04-05T23:32:49.207Z,72.80
2019-04-05T23:35:18.920Z,72.70
2019-04-05T23:37:48.645Z,72.20
2019-04-05T23:40:18.325Z,72.00
2019-04-05T23:42:47.944Z,71.60
2019-04-05T23:45:17.712Z,70.90
2019-04-05T23:47:47.377Z,71.30
2019-04-05T23:50:16.979Z,72.50
2019-04-05T23:52:46.624Z,72.70
2019-04-05T23:55:16.253Z,72.50
2019-04-05T23:57:45.892Z,72.50
